Time;durP1;ratioP1;P1;durP2;ratioP2;P2;SDS_P1;SDS_P2;PMS_P1;PMS_P2;Temp;Humidity;BMP_temperature;BMP_pressure;BME280_temperature;BME280_humidity;BME280_pressure;Samples;Min_cycle;Max_cycle;Signal;HPM_P1;HPM_P2
2024/01/09 00:02:22;;;;;;;9.13;6.68;;;;;;;-0.81;82.43;94650.53;5067817;28;20040;-74
2024/01/09 00:04:48;;;;;;;9.63;7.05;;;;;;;-0.88;82.59;94647.44;5086395;28;20032;-73
2024/01/09 00:07:13;;;;;;;13.40;9.18;;;;;;;-0.79;81.98;94654.69;5081723;28;20031;-74
2024/01/09 00:09:38;;;;;;;12.10;8.02;;;;;;;-0.74;82.38;94657.91;5088992;28;20043;-74
2024/01/09 00:12:04;;;;;;;9.77;6.43;;;;;;;-0.70;82.83;94656.03;5086763;28;20513;-73
2024/01/09 00:14:30;;;;;;;10.45;7.05;;;;;;;-0.69;83.15;94673.03;5086373;28;20040;-73
2024/01/09 00:16:55;;;;;;;10.90;7.70;;;;;;;-0.76;82.58;94666.50;5087942;28;20032;-72
2024/01/09 00:19:20;;;;;;;10.82;7.28;;;;;;;-1.18;82.44;94662.22;5086226;28;20394;-73
2024/01/09 00:21:47;;;;;;;10.63;6.72;;;;;;;-1.21;83.17;94667.47;5088013;28;20540;-71
2024/01/09 00:24:13;;;;;;;10.40;6.53;;;;;;;-1.26;82.60;94644.69;5085891;28;20099;-73
2024/01/09 00:26:42;;;;;;;11.13;8.38;;;;;;;-1.22;83.29;94669.19;5086604;28;20058;-73
2024/01/09 00:29:07;;;;;;;10.40;7.20;;;;;;;-1.10;83.21;94667.88;5085787;28;20032;-72
2024/01/09 00:31:33;;;;;;;9.93;6.75;;;;;;;-0.98;82.89;94669.91;5064578;28;21058;-72
2024/01/09 00:33:59;;;;;;;11.63;6.80;;;;;;;-1.23;82.81;94646.28;5085109;28;20020;-73
2024/01/09 00:36:24;;;;;;;11.13;7.53;;;;;;;-0.96;82.68;94683.44;5081656;28;20040;-73
2024/01/09 00:38:50;;;;;;;12.48;7.32;;;;;;;-1.03;82.51;94682.03;5068732;28;20028;-73
2024/01/09 00:41:15;;;;;;;10.13;7.20;;;;;;;-0.95;82.21;94682.56;5087416;28;20119;-73
2024/01/09 00:43:40;;;;;;;10.70;7.07;;;;;;;-1.20;82.66;94684.41;5086804;28;20028;-73
2024/01/09 00:46:06;;;;;;;10.57;7.00;;;;;;;-1.15;82.87;94678.22;5082448;28;20028;-72
2024/01/09 00:48:31;;;;;;;10.43;6.68;;;;;;;-0.98;82.26;94685.22;5069365;28;20090;-73
2024/01/09 00:50:57;;;;;;;9.27;6.57;;;;;;;-0.84;82.46;94688.94;5065089;28;20029;-72
2024/01/09 00:53:22;;;;;;;9.50;6.72;;;;;;;-0.93;81.83;94696.06;5088266;28;20027;-73
2024/01/09 00:55:47;;;;;;;9.05;6.10;;;;;;;-1.14;82.18;94690.09;5085587;28;20044;-72
2024/01/09 00:58:13;;;;;;;11.25;7.03;;;;;;;-0.71;81.11;94696.03;5086200;28;20081;-73
2024/01/09 01:00:38;;;;;;;16.88;9.30;;;;;;;-0.87;81.18;94701.81;5087317;28;20031;-72
2024/01/09 01:03:04;;;;;;;12.05;7.55;;;;;;;-0.85;80.89;94702.59;5086509;28;20077;-73
2024/01/09 01:05:29;;;;;;;12.25;7.55;;;;;;;-0.78;81.06;94706.53;5085425;28;20036;-72
2024/01/09 01:07:55;;;;;;;11.02;7.35;;;;;;;-0.84;81.38;94694.88;5087633;28;20517;-73
2024/01/09 01:10:20;;;;;;;9.60;7.05;;;;;;;-0.68;81.15;94705.28;5084046;28;20036;-72
2024/01/09 01:12:46;;;;;;;12.30;6.45;;;;;;;-0.62;80.87;94712.69;5089907;28;20031;-72
2024/01/09 01:15:11;;;;;;;8.40;6.28;;;;;;;-0.72;80.88;94704.59;5091200;28;20031;-73
2024/01/09 01:17:37;;;;;;;10.00;6.65;;;;;;;-0.90;81.26;94708.69;5072308;28;20028;-72
2024/01/09 01:20:02;;;;;;;11.52;7.53;;;;;;;-0.93;81.74;94706.25;5086693;28;20063;-73
2024/01/09 01:22:28;;;;;;;11.23;7.55;;;;;;;-0.73;80.94;94710.56;5069936;28;20037;-72
2024/01/09 01:24:53;;;;;;;13.70;7.55;;;;;;;-0.64;79.68;94699.19;5069564;28;20025;-73
2024/01/09 01:27:18;;;;;;;10.45;7.32;;;;;;;-0.82;79.98;94707.56;5052839;28;20037;-72
2024/01/09 01:29:44;;;;;;;12.05;6.90;;;;;;;-0.72;81.10;94713.97;5069450;28;20033;-72
2024/01/09 01:32:10;;;;;;;9.23;6.13;;;;;;;-0.74;79.53;94674.94;5069332;28;20426;-73
2024/01/09 01:34:38;;;;;;;7.75;6.03;;;;;;;-0.52;78.68;94713.97;5069518;28;20478;-73
2024/01/09 01:37:05;;;;;;;9.43;6.25;;;;;;;-0.44;78.72;94710.28;5053715;28;20048;-73
2024/01/09 01:39:30;;;;;;;9.40;6.07;;;;;;;-0.44;78.58;94711.13;5069463;28;20017;-73
2024/01/09 01:41:55;;;;;;;9.88;6.88;;;;;;;-0.54;79.36;94714.94;5070752;28;20539;-72
2024/01/09 01:44:22;;;;;;;9.35;6.22;;;;;;;-0.74;79.91;94710.66;5070956;28;20025;-73
2024/01/09 01:46:47;;;;;;;11.35;7.80;;;;;;;-0.99;80.72;94713.34;5069438;28;20041;-73
2024/01/09 01:49:12;;;;;;;13.38;7.55;;;;;;;-0.91;80.16;94712.16;5052708;28;20422;-73
2024/01/09 01:51:39;;;;;;;11.43;6.25;;;;;;;-0.67;80.12;94712.03;5036001;28;20556;-72
2024/01/09 01:54:04;;;;;;;9.20;6.15;;;;;;;-0.84;80.73;94717.81;5084631;28;20140;-73
2024/01/09 01:56:30;;;;;;;9.18;5.75;;;;;;;-1.00;81.01;94720.16;5089360;28;20081;-73
2024/01/09 01:58:55;;;;;;;8.52;6.18;;;;;;;-0.83;80.10;94716.94;5090734;28;20409;-72
2024/01/09 02:01:21;;;;;;;8.13;5.88;;;;;;;-0.82;80.40;94721.16;5087169;28;20542;-72
2024/01/09 02:03:46;;;;;;;8.50;5.72;;;;;;;-0.89;80.58;94719.75;5052470;28;20028;-73
2024/01/09 02:06:12;;;;;;;9.23;6.07;;;;;;;-0.90;80.33;94713.78;5052696;28;20044;-73
2024/01/09 02:08:37;;;;;;;10.00;5.53;;;;;;;-1.10;81.21;94716.31;5035847;28;20529;-73
2024/01/09 02:11:03;;;;;;;9.68;5.97;;;;;;;-0.96;81.21;94719.16;5068756;28;20058;-73
2024/01/09 02:13:28;;;;;;;8.95;5.95;;;;;;;-0.94;80.48;94717.38;5069195;28;20463;-73
2024/01/09 02:15:53;;;;;;;10.00;6.20;;;;;;;-0.89;80.58;94712.09;5086022;28;20040;-72
2024/01/09 02:18:19;;;;;;;10.35;6.38;;;;;;;-1.12;81.23;94716.34;5089310;28;20024;-72
2024/01/09 02:20:44;;;;;;;9.50;6.63;;;;;;;-0.90;81.50;94724.00;5080901;28;20036;-73
2024/01/09 02:23:10;;;;;;;8.70;5.88;;;;;;;-0.66;80.47;94726.47;5070317;28;20078;-73
2024/01/09 02:25:35;;;;;;;10.13;6.28;;;;;;;-0.78;80.83;94726.94;5076156;28;20402;-73
2024/01/09 02:28:04;;;;;;;8.32;5.95;;;;;;;-1.06;81.10;94722.09;5085835;28;20054;-73
2024/01/09 02:30:30;;;;;;;9.35;6.05;;;;;;;-0.98;80.75;94723.47;5069144;28;20033;-72
2024/01/09 02:32:55;;;;;;;15.40;9.50;;;;;;;-0.99;80.47;94719.28;5055984;28;20029;-72
2024/01/09 02:35:20;;;;;;;9.05;6.88;;;;;;;-0.84;80.58;94727.19;5072820;28;20032;-73
2024/01/09 02:37:46;;;;;;;11.68;7.18;;;;;;;-0.71;80.27;94733.47;5092691;28;20024;-73
2024/01/09 02:40:12;;;;;;;8.15;6.22;;;;;;;-0.82;81.05;94735.63;5094043;28;20442;-72
2024/01/09 02:42:37;;;;;;;8.88;5.35;;;;;;;-1.04;80.56;94725.44;5093952;28;20081;-73
2024/01/09 02:45:03;;;;;;;12.05;6.78;;;;;;;-1.14;80.77;94730.91;5092627;28;20036;-72
2024/01/09 02:47:28;;;;;;;9.75;6.40;;;;;;;-1.16;81.27;94731.84;5094076;28;20020;-72
2024/01/09 02:49:54;;;;;;;9.02;6.22;;;;;;;-0.82;80.56;94736.44;5093741;28;20040;-73
2024/01/09 02:52:19;;;;;;;8.70;6.50;;;;;;;-0.81;79.26;94738.09;5093494;28;20035;-73
2024/01/09 02:54:45;;;;;;;8.02;6.05;;;;;;;-0.72;80.21;94734.38;5092486;28;20044;-72
2024/01/09 02:57:10;;;;;;;10.65;6.65;;;;;;;-0.75;79.42;94735.34;5075722;28;20052;-72
2024/01/09 02:59:36;;;;;;;9.57;6.15;;;;;;;-0.78;79.86;94727.81;5058754;28;20031;-73
2024/01/09 03:02:01;;;;;;;11.15;7.20;;;;;;;-0.80;79.92;94723.66;5058732;28;20032;-73
2024/01/09 03:04:26;;;;;;;10.15;6.85;;;;;;;-0.74;79.71;94728.50;5075353;28;20020;-73
2024/01/09 03:06:52;;;;;;;10.68;7.38;;;;;;;-0.89;79.76;94735.06;5093335;28;20020;-72
2024/01/09 03:09:18;;;;;;;14.85;7.63;;;;;;;-0.93;80.15;94731.78;5093476;28;20031;-73
2024/01/09 03:11:43;;;;;;;9.77;6.85;;;;;;;-0.84;80.02;94732.28;5093780;28;20492;-73
2024/01/09 03:14:09;;;;;;;10.77;6.55;;;;;;;-0.90;80.01;94729.09;5092102;28;20169;-72
2024/01/09 03:16:34;;;;;;;10.80;7.20;;;;;;;-0.74;79.27;94744.63;5080084;28;20051;-72
2024/01/09 03:19:00;;;;;;;10.70;7.20;;;;;;;-0.81;79.78;94738.09;5073031;28;20025;-73
2024/01/09 03:21:25;;;;;;;13.30;8.68;;;;;;;-1.00;79.87;94706.59;5073295;28;20474;-73
2024/01/09 03:23:50;;;;;;;9.40;6.47;;;;;;;-0.65;80.12;94738.31;5071706;28;20028;-72
2024/01/09 03:26:16;;;;;;;10.38;7.47;;;;;;;-0.71;79.36;94716.44;5055267;28;20040;-72
2024/01/09 03:28:41;;;;;;;9.85;6.47;;;;;;;-0.68;80.16;94746.09;5072841;28;20395;-73
2024/01/09 03:31:07;;;;;;;10.20;6.82;;;;;;;-0.59;79.28;94750.84;5054792;28;20056;-73
2024/01/09 03:33:32;;;;;;;10.15;5.90;;;;;;;-0.55;79.55;94754.94;5072717;28;20029;-72
2024/01/09 03:35:57;;;;;;;10.65;7.32;;;;;;;-0.71;79.79;94749.59;5054541;28;20091;-72
2024/01/09 03:38:23;;;;;;;9.93;6.63;;;;;;;-0.75;79.72;94749.81;5071548;28;20028;-73
2024/01/09 03:40:50;;;;;;;9.68;6.00;;;;;;;-0.79;80.39;94750.81;5071244;28;20040;-72
2024/01/09 03:43:15;;;;;;;8.27;5.28;;;;;;;-0.66;79.61;94756.25;5037060;28;20032;-73
2024/01/09 03:45:40;;;;;;;7.05;4.75;;;;;;;-0.78;79.72;94752.47;5072631;28;20376;-73
2024/01/09 03:48:06;;;;;;;6.20;4.22;;;;;;;-0.53;78.91;94758.25;5071289;28;20454;-73
2024/01/09 03:50:32;;;;;;;7.20;4.43;;;;;;;-0.57;78.60;94750.78;5054284;28;20055;-73
2024/01/09 03:52:57;;;;;;;7.45;5.05;;;;;;;-0.70;79.16;94770.84;5071129;28;20468;-72
2024/01/09 03:55:23;;;;;;;6.90;4.63;;;;;;;-0.63;79.57;94762.06;5054270;28;20421;-72
2024/01/09 03:57:48;;;;;;;7.32;5.05;;;;;;;-0.66;79.86;94774.94;5054356;28;20028;-73
2024/01/09 04:00:14;;;;;;;7.60;5.40;;;;;;;-0.82;79.21;94745.84;5072453;28;20094;-73
2024/01/09 04:02:40;;;;;;;9.00;5.20;;;;;;;-0.66;79.59;94782.59;5072030;28;20479;-73
2024/01/09 04:05:06;;;;;;;5.00;3.63;;;;;;;-0.56;79.19;94788.16;5054091;28;20036;-72
2024/01/09 04:07:31;;;;;;;5.20;3.65;;;;;;;-0.80;79.45;94795.06;5074611;28;20039;-72
2024/01/09 04:09:57;;;;;;;5.75;3.10;;;;;;;-0.59;79.39;94801.88;5090703;28;20036;-73
2024/01/09 04:12:22;;;;;;;6.07;4.10;;;;;;;-0.70;78.93;94797.22;5074057;28;20085;-72
2024/01/09 04:14:47;;;;;;;26.63;11.93;;;;;;;-0.52;78.50;94795.66;5092039;28;20031;-73
2024/01/09 04:17:13;;;;;;;9.05;5.07;;;;;;;-0.46;78.12;94789.47;5079304;28;20028;-73
2024/01/09 04:19:39;;;;;;;5.43;3.38;;;;;;;-0.70;78.42;94799.75;5070522;28;20024;-73
2024/01/09 04:22:05;;;;;;;5.32;3.95;;;;;;;-0.43;78.32;94804.66;5052580;28;20052;-73
2024/01/09 04:24:32;;;;;;;12.90;8.40;;;;;;;-0.29;77.92;94796.44;5069935;28;20440;-73
2024/01/09 04:26:57;;;;;;;15.38;7.97;;;;;;;-0.42;77.98;94811.41;5070382;28;20032;-73
2024/01/09 04:29:23;;;;;;;10.80;6.80;;;;;;;-0.32;77.42;94811.88;5071157;28;20032;-73
2024/01/09 04:31:49;;;;;;;11.02;7.22;;;;;;;-0.36;78.02;94821.41;5053498;28;20032;-72
2024/01/09 04:34:14;;;;;;;13.93;8.32;;;;;;;-0.46;77.90;94815.81;5037063;28;20194;-73
2024/01/09 04:36:39;;;;;;;10.45;5.55;;;;;;;-0.85;78.67;94818.19;5072899;28;20466;-73
2024/01/09 04:39:05;;;;;;;11.77;7.35;;;;;;;-0.82;78.76;94827.47;5088552;28;20039;-72
2024/01/09 04:41:30;;;;;;;8.77;6.03;;;;;;;-0.85;78.39;94817.38;5091989;28;20040;-72
2024/01/09 04:43:55;;;;;;;9.85;5.15;;;;;;;-0.80;78.39;94820.59;5090415;28;20021;-73
2024/01/09 04:46:21;;;;;;;8.63;5.03;;;;;;;-0.68;78.14;94831.13;5081006;28;20032;-73
2024/01/09 04:48:46;;;;;;;18.90;10.98;;;;;;;-0.82;78.98;94843.59;5070048;28;20028;-73
2024/01/09 04:51:12;;;;;;;12.07;7.53;;;;;;;-0.68;78.23;94845.63;5071497;28;20041;-72
2024/01/09 04:53:37;;;;;;;9.13;5.60;;;;;;;-0.73;79.28;94842.41;5069817;28;20027;-73
2024/01/09 04:56:03;;;;;;;10.50;6.93;;;;;;;-0.62;78.79;94852.19;5069770;28;20064;-73
2024/01/09 04:58:29;;;;;;;7.65;5.38;;;;;;;-0.70;78.72;94847.38;5069801;28;20478;-73
2024/01/09 05:00:55;;;;;;;10.40;7.45;;;;;;;-0.75;78.98;94855.25;5036909;28;20033;-73
2024/01/09 05:03:21;;;;;;;9.30;6.57;;;;;;;-0.74;79.31;94861.16;5069865;28;20158;-72
2024/01/09 05:05:46;;;;;;;9.43;6.93;;;;;;;-0.72;79.17;94844.09;5069585;28;20471;-73
2024/01/09 05:08:12;;;;;;;11.02;6.45;;;;;;;-0.72;79.15;94837.25;5069860;28;20024;-72
2024/01/09 05:10:37;;;;;;;8.05;5.28;;;;;;;-0.56;78.30;94829.81;5071171;28;20218;-73
2024/01/09 05:13:02;;;;;;;12.10;7.25;;;;;;;-0.70;78.50;94821.88;5070988;28;20028;-73
2024/01/09 05:15:28;;;;;;;12.93;7.57;;;;;;;-0.66;79.07;94818.31;5069807;28;20054;-73
2024/01/09 05:17:53;;;;;;;9.40;5.82;;;;;;;-0.56;77.58;94821.34;5069648;28;20074;-72
2024/01/09 05:20:19;;;;;;;12.20;7.05;;;;;;;-0.70;78.09;94821.88;5069751;28;20032;-73
2024/01/09 05:22:44;;;;;;;11.60;7.75;;;;;;;-0.67;78.48;94839.59;5071519;28;20016;-73
2024/01/09 05:25:10;;;;;;;9.30;6.15;;;;;;;-0.47;77.13;94842.25;5066804;28;20040;-72
2024/01/09 05:27:35;;;;;;;9.02;6.20;;;;;;;-0.23;76.89;94842.13;5083533;28;20032;-72
2024/01/09 05:30:01;;;;;;;6.47;4.63;;;;;;;-0.33;76.33;94845.97;5079666;28;20039;-73
2024/01/09 05:32:26;;;;;;;6.30;4.38;;;;;;;-0.29;76.24;94847.50;5070355;28;20028;-73
2024/01/09 05:34:52;;;;;;;6.18;4.40;;;;;;;-0.29;75.24;94860.25;5034194;28;20487;-73
2024/01/09 05:37:17;;;;;;;5.45;3.92;;;;;;;-0.34;76.36;94859.59;5068901;28;20105;-73
2024/01/09 05:39:46;;;;;;;8.02;4.97;;;;;;;-0.31;76.62;94864.59;5071845;28;20564;-73
2024/01/09 05:42:11;;;;;;;16.42;8.00;;;;;;;-0.64;77.74;94852.28;5072368;28;20032;-72
2024/01/09 05:44:37;;;;;;;18.27;9.52;;;;;;;-0.70;78.03;94855.03;5042940;28;20471;-73
2024/01/09 05:47:03;;;;;;;140.18;50.60;;;;;;;-0.34;76.68;94864.72;5085035;28;20051;-73
2024/01/09 05:49:28;;;;;;;50.70;21.48;;;;;;;-0.25;76.29;94874.59;5085571;28;20043;-73
2024/01/09 05:51:53;;;;;;;83.40;34.92;;;;;;;-0.42;76.69;94880.31;5085727;28;20089;-73
2024/01/09 05:54:19;;;;;;;45.15;21.17;;;;;;;-0.57;76.58;94848.59;5085186;28;20077;-73
2024/01/09 05:56:44;;;;;;;17.48;9.43;;;;;;;-0.26;75.91;94894.16;5082745;28;20078;-72
2024/01/09 05:59:10;;;;;;;13.52;7.05;;;;;;;-0.24;76.18;94900.03;5083429;28;20505;-73
2024/01/09 06:01:35;;;;;;;7.10;4.35;;;;;;;-0.31;75.98;94905.44;5067353;28;20081;-73
2024/01/09 06:04:00;;;;;;;5.18;3.45;;;;;;;-0.41;77.16;94912.63;5084844;28;20043;-73
2024/01/09 06:06:26;;;;;;;4.88;3.60;;;;;;;-0.29;76.39;94924.09;5086079;28;20039;-72
2024/01/09 06:08:51;;;;;;;4.78;3.53;;;;;;;-0.41;77.02;94935.59;5071795;28;20020;-73
2024/01/09 06:11:17;;;;;;;4.72;3.25;;;;;;;-0.46;77.10;94938.31;5090318;28;20048;-73
2024/01/09 06:13:42;;;;;;;5.57;3.50;;;;;;;-0.40;77.30;94947.47;5071412;28;20544;-73
2024/01/09 06:16:08;;;;;;;5.65;3.42;;;;;;;-0.37;77.28;94967.78;5073033;28;20078;-72
2024/01/09 06:18:34;;;;;;;6.13;3.63;;;;;;;-0.35;77.27;94970.28;5074305;28;20032;-73
2024/01/09 06:20:59;;;;;;;5.80;3.78;;;;;;;-0.42;76.58;94986.72;5079352;28;20070;-73
2024/01/09 06:23:25;;;;;;;5.18;3.17;;;;;;;-0.35;77.36;94991.53;5089353;28;20148;-73
2024/01/09 06:25:50;;;;;;;4.88;3.17;;;;;;;-0.31;77.23;94984.59;5088315;28;20078;-72
2024/01/09 06:28:16;;;;;;;5.43;3.50;;;;;;;-0.25;77.80;95000.53;5089056;28;20416;-73
2024/01/09 06:30:41;;;;;;;4.63;3.08;;;;;;;-0.17;76.94;95004.50;5088739;28;20425;-73
2024/01/09 06:33:07;;;;;;;4.53;2.83;;;;;;;-0.27;76.73;94997.19;5083930;28;20021;-73
2024/01/09 06:35:32;;;;;;;13.88;6.78;;;;;;;-0.64;77.96;94987.53;5083522;28;20032;-73
2024/01/09 06:37:57;;;;;;;25.00;10.27;;;;;;;-0.29;78.23;95026.22;5070137;28;20467;-73
2024/01/09 06:40:24;;;;;;;24.58;10.18;;;;;;;-0.69;77.78;95041.25;5091639;28;20504;-73
2024/01/09 06:42:50;;;;;;;15.50;8.18;;;;;;;-0.70;76.32;95042.16;5070355;28;20395;-73
2024/01/09 06:45:15;;;;;;;16.00;8.70;;;;;;;-1.00;75.74;95046.59;5091653;28;20360;-72
2024/01/09 06:47:41;;;;;;;10.48;6.50;;;;;;;-1.16;75.21;95041.16;5094787;28;20055;-73
2024/01/09 06:50:07;;;;;;;15.35;8.23;;;;;;;-1.18;74.73;95037.00;5072265;28;20039;-73
2024/01/09 06:52:32;;;;;;;15.68;7.68;;;;;;;-1.42;74.98;95047.16;5071260;28;20024;-73
2024/01/09 06:54:58;;;;;;;9.35;4.70;;;;;;;-1.63;74.90;95063.94;5071614;28;20032;-73
2024/01/09 06:57:24;;;;;;;21.90;10.38;;;;;;;-1.69;75.50;95068.41;5072118;28;20486;-73
2024/01/09 06:59:50;;;;;;;11.63;6.20;;;;;;;-1.73;76.28;95077.00;5085936;28;20051;-73
2024/01/09 07:02:15;;;;;;;17.02;8.65;;;;;;;-1.66;75.90;95073.41;5084888;28;20028;-73
2024/01/09 07:04:41;;;;;;;11.85;7.78;;;;;;;-1.81;76.34;95067.06;5083703;28;20029;-72
2024/01/09 07:07:06;;;;;;;10.18;6.00;;;;;;;-1.75;76.02;95083.88;5081242;28;20102;-73
2024/01/09 07:09:32;;;;;;;11.57;6.72;;;;;;;-1.76;75.66;95087.28;5074477;28;20020;-73
2024/01/09 07:11:57;;;;;;;10.55;5.72;;;;;;;-1.55;74.82;95096.81;5082026;28;20024;-74
2024/01/09 07:14:23;;;;;;;4.53;3.42;;;;;;;-1.56;74.17;95100.25;5089948;28;20024;-75
2024/01/09 07:16:48;;;;;;;3.55;2.78;;;;;;;-1.57;73.62;95106.22;5060262;28;20082;-74
2024/01/09 07:19:14;;;;;;;4.25;2.95;;;;;;;-1.55;73.90;95109.56;5072084;28;20037;-75
2024/01/09 07:21:40;;;;;;;4.03;2.80;;;;;;;-1.48;74.23;95102.56;5071110;28;20032;-73
2024/01/09 07:24:06;;;;;;;5.45;3.75;;;;;;;-1.68;74.09;95100.63;5068106;28;20044;-77
2024/01/09 07:26:32;;;;;;;35.80;10.82;;;;;;;-1.97;75.97;95115.06;5067394;28;20047;-73
2024/01/09 07:28:57;;;;;;;7.82;5.68;;;;;;;-1.98;75.83;95123.56;5070248;28;20032;-74
2024/01/09 07:31:23;;;;;;;8.07;5.70;;;;;;;-2.12;76.60;95130.78;5080845;28;20470;-74
2024/01/09 07:33:48;;;;;;;7.45;4.93;;;;;;;-2.46;75.78;95113.91;5089386;28;20382;-73
2024/01/09 07:36:13;;;;;;;9.43;6.53;;;;;;;-2.44;76.77;95122.34;5090914;28;20482;-73
2024/01/09 07:38:39;;;;;;;13.27;5.53;;;;;;;-2.43;76.74;95129.09;5074552;28;20068;-74
2024/01/09 07:41:04;;;;;;;11.10;6.55;;;;;;;-2.50;76.89;95130.16;5091497;28;20028;-74
2024/01/09 07:43:30;;;;;;;11.18;6.53;;;;;;;-2.60;77.02;95118.53;5085520;28;20445;-74
2024/01/09 07:45:55;;;;;;;9.13;6.18;;;;;;;-2.32;76.31;95127.06;5053613;28;20048;-74
2024/01/09 07:48:22;;;;;;;11.45;7.35;;;;;;;-2.46;77.38;95131.72;5070580;28;20024;-74
2024/01/09 07:50:47;;;;;;;12.02;7.28;;;;;;;-2.43;77.12;95135.88;5052614;28;20032;-73
2024/01/09 07:53:12;;;;;;;10.18;6.15;;;;;;;-2.59;76.47;95132.91;5069750;28;20391;-74
2024/01/09 07:55:38;;;;;;;10.73;6.78;;;;;;;-2.59;76.11;95138.84;5081222;28;20048;-73
2024/01/09 07:58:05;;;;;;;13.77;8.30;;;;;;;-2.61;76.33;95122.78;5070080;28;20021;-74
2024/01/09 08:00:33;;;;;;;20.45;10.70;;;;;;;-2.45;75.97;95148.66;5082388;28;20040;-73
2024/01/09 08:02:58;;;;;;;9.63;6.53;;;;;;;-2.47;76.02;95141.06;5074520;28;20089;-74
2024/01/09 08:05:24;;;;;;;14.20;7.68;;;;;;;-2.62;75.27;95143.16;5092463;28;20032;-74
2024/01/09 08:07:49;;;;;;;14.15;8.00;;;;;;;-2.71;75.91;95136.63;5092308;28;20088;-74
2024/01/09 08:10:14;;;;;;;9.90;6.82;;;;;;;-2.57;76.13;95154.91;5092234;28;20032;-74
2024/01/09 08:12:40;;;;;;;14.75;8.93;;;;;;;-2.58;76.29;95163.41;5087773;28;20040;-73
2024/01/09 08:15:06;;;;;;;16.17;10.30;;;;;;;-2.68;76.71;95150.97;5090800;28;20040;-72
2024/01/09 08:17:31;;;;;;;13.68;9.05;;;;;;;-2.62;76.48;95166.06;5090729;28;20056;-73
2024/01/09 08:19:57;;;;;;;11.43;7.82;;;;;;;-2.56;76.24;95171.03;5092110;28;20036;-73
2024/01/09 08:22:22;;;;;;;13.57;7.93;;;;;;;-2.70;76.36;95159.50;5089504;28;20029;-73
2024/01/09 08:24:47;;;;;;;15.98;9.10;;;;;;;-2.47;76.32;95175.84;5081768;28;20039;-73
2024/01/09 08:27:13;;;;;;;12.90;7.43;;;;;;;-2.50;76.04;95174.22;5074691;28;20399;-72
2024/01/09 08:29:38;;;;;;;18.48;8.52;;;;;;;-2.71;76.43;95141.72;5071214;28;20025;-74
2024/01/09 08:32:04;;;;;;;12.30;8.23;;;;;;;-2.60;76.55;95182.97;5080698;28;20089;-74
2024/01/09 08:34:30;;;;;;;12.30;7.13;;;;;;;-2.56;76.02;95197.28;5090656;28;20051;-74
2024/01/09 08:36:55;;;;;;;15.50;9.73;;;;;;;-2.56;75.99;95193.91;5090420;28;20486;-74
2024/01/09 08:39:20;;;;;;;18.15;11.60;;;;;;;-2.52;76.30;95193.78;5072767;28;20032;-74
2024/01/09 08:41:46;;;;;;;15.02;9.50;;;;;;;-2.52;75.56;95195.50;5090524;28;20032;-74
2024/01/09 08:44:12;;;;;;;15.32;9.40;;;;;;;-2.52;76.23;95182.78;5089397;28;20387;-73
2024/01/09 08:46:37;;;;;;;15.85;9.55;;;;;;;-2.56;75.88;95186.28;5090273;28;20039;-73
2024/01/09 08:49:02;;;;;;;10.20;6.63;;;;;;;-2.57;75.27;95187.13;5090385;28;20452;-73
2024/01/09 08:51:28;;;;;;;12.90;7.53;;;;;;;-2.77;75.63;95163.03;5091265;28;20032;-73
2024/01/09 08:53:54;;;;;;;11.95;8.00;;;;;;;-2.58;75.96;95188.84;5090230;28;20020;-74
2024/01/09 08:56:19;;;;;;;19.13;10.65;;;;;;;-2.52;75.60;95186.16;5090173;28;20521;-73
2024/01/09 08:58:44;;;;;;;15.82;10.27;;;;;;;-2.48;75.51;95190.28;5091397;28;20043;-74
2024/01/09 09:01:10;;;;;;;21.48;11.90;;;;;;;-2.54;74.08;95194.69;5091702;28;20031;-73
2024/01/09 09:03:36;;;;;;;11.30;7.40;;;;;;;-2.59;74.02;95191.41;5073108;28;20024;-73
2024/01/09 09:06:02;;;;;;;11.77;7.55;;;;;;;-2.50;74.62;95202.22;5089938;28;20036;-73
2024/01/09 09:08:27;;;;;;;15.07;8.35;;;;;;;-2.51;74.98;95199.69;5091246;28;20031;-73
2024/01/09 09:10:53;;;;;;;14.05;7.95;;;;;;;-2.35;73.89;95200.97;5089956;28;20415;-74
2024/01/09 09:13:18;;;;;;;16.02;9.32;;;;;;;-2.43;73.43;95202.88;5091218;28;20439;-73
2024/01/09 09:15:44;;;;;;;9.20;6.38;;;;;;;-2.35;73.56;95200.13;5091390;28;20036;-74
2024/01/09 09:18:10;;;;;;;12.27;7.53;;;;;;;-2.16;72.98;95205.56;5091142;28;20050;-73
2024/01/09 09:20:36;;;;;;;15.63;10.70;;;;;;;-1.98;72.95;95204.22;5091263;28;20490;-73
2024/01/09 09:23:01;;;;;;;9.05;6.55;;;;;;;-1.91;71.99;95204.03;5073098;28;20039;-73
2024/01/09 09:25:27;;;;;;;8.68;5.53;;;;;;;-2.04;72.64;95205.22;5089757;28;20464;-73
2024/01/09 09:27:53;;;;;;;7.00;5.00;;;;;;;-2.27;71.80;95204.16;5091087;28;20325;-74
2024/01/09 09:30:19;;;;;;;7.50;5.55;;;;;;;-2.28;72.17;95206.75;5089737;28;20032;-73
2024/01/09 09:32:44;;;;;;;13.63;7.60;;;;;;;-2.35;72.02;95190.78;5089767;28;20026;-73
2024/01/09 09:35:10;;;;;;;12.90;7.70;;;;;;;-2.13;71.88;95197.84;5089677;28;20032;-73
2024/01/09 09:37:35;;;;;;;10.23;5.78;;;;;;;-2.19;71.73;95196.31;5089748;28;20069;-72
2024/01/09 09:40:01;;;;;;;10.15;6.32;;;;;;;-2.15;72.20;95195.34;5090932;28;20059;-73
2024/01/09 09:42:26;;;;;;;14.02;8.27;;;;;;;-2.28;72.13;95191.47;5093439;28;20032;-73
2024/01/09 09:44:52;;;;;;;15.43;10.20;;;;;;;-2.27;72.49;95185.50;5076860;28;20036;-74
2024/01/09 09:47:19;;;;;;;15.82;10.25;;;;;;;-2.22;72.80;95190.47;5093837;28;20024;-72
2024/01/09 09:49:45;;;;;;;15.70;9.77;;;;;;;-2.20;73.32;95188.69;5076969;28;20028;-74
2024/01/09 09:52:11;;;;;;;16.05;9.05;;;;;;;-2.25;73.01;95189.69;5076804;28;20059;-74
2024/01/09 09:54:37;;;;;;;13.95;8.80;;;;;;;-2.41;73.26;95160.41;5076780;28;20024;-74
2024/01/09 09:57:03;;;;;;;16.25;9.05;;;;;;;-2.01;73.49;95189.88;5093731;28;20527;-73
2024/01/09 09:59:28;;;;;;;17.85;8.52;;;;;;;-2.08;73.94;95188.38;5093823;28;20026;-73
2024/01/09 10:01:54;;;;;;;13.38;7.72;;;;;;;-2.16;74.64;95173.31;5076499;28;20417;-74
2024/01/09 10:04:29;;;;;;;10.25;6.78;;;;;;;-1.90;73.61;95180.22;5076663;28;20035;-74
2024/01/09 10:06:58;;;;;;;9.60;6.63;;;;;;;-1.70;73.70;95178.81;5094644;28;20036;-73
2024/01/09 10:09:42;;;;;;;13.38;7.80;;;;;;;-1.92;73.22;95163.31;5093347;28;20413;-73
2024/01/09 10:12:07;;;;;;;13.38;7.43;;;;;;;-1.57;73.12;95164.81;5093330;28;20024;-73
2024/01/09 10:14:33;;;;;;;11.85;8.20;;;;;;;-1.47;71.59;95168.78;5093311;28;20408;-74
2024/01/09 10:17:03;;;;;;;10.43;6.30;;;;;;;-1.52;71.65;95178.28;5093124;28;20020;-74
2024/01/09 10:19:28;;;;;;;14.13;7.45;;;;;;;-1.69;72.17;95178.78;5094424;28;20024;-74
2024/01/09 10:21:54;;;;;;;12.60;6.93;;;;;;;-1.53;71.97;95174.06;5093205;28;20576;-74
2024/01/09 10:24:19;;;;;;;12.13;6.85;;;;;;;-1.38;72.09;95175.31;5094336;28;20024;-74
2024/01/09 10:26:44;;;;;;;15.40;9.20;;;;;;;-1.28;69.74;95176.69;5076313;28;20397;-74
2024/01/09 10:29:11;;;;;;;11.25;7.15;;;;;;;-1.26;68.90;95179.19;5094245;28;20024;-74
2024/01/09 10:31:37;;;;;;;10.68;6.72;;;;;;;-1.36;68.63;95189.69;5093059;28;20557;-73
2024/01/09 10:34:02;;;;;;;15.30;9.18;;;;;;;-1.15;68.46;95188.16;5093039;28;20024;-73
2024/01/09 10:36:27;;;;;;;10.45;6.22;;;;;;;-1.09;68.38;95192.25;5094477;28;20081;-73
2024/01/09 10:39:06;;;;;;;8.00;5.35;;;;;;;-1.21;67.53;95192.63;5092819;28;20032;-73
2024/01/09 10:41:31;;;;;;;28.00;15.82;;;;;;;-1.16;68.17;95193.31;5092992;28;20073;-73
2024/01/09 10:43:59;;;;;;;18.65;11.77;;;;;;;-1.22;68.19;95208.81;5092678;28;20032;-72
2024/01/09 10:46:27;;;;;;;7.85;4.60;;;;;;;-1.59;68.97;95203.13;5076144;28;20444;-73
2024/01/09 10:48:53;;;;;;;8.10;5.22;;;;;;;-1.71;69.16;95208.53;5092530;28;20505;-74
2024/01/09 10:51:18;;;;;;;8.98;5.25;;;;;;;-1.90;69.09;95209.94;5092341;28;20035;-74
2024/01/09 10:53:47;;;;;;;8.68;5.57;;;;;;;-2.05;70.42;95198.47;5092576;28;20025;-74
2024/01/09 10:56:15;;;;;;;12.65;7.18;;;;;;;-1.67;69.43;95227.13;5093731;28;20059;-74
2024/01/09 10:58:43;;;;;;;11.07;5.90;;;;;;;-2.01;68.89;95222.97;5076024;28;20031;-73
2024/01/09 11:01:09;;;;;;;10.10;6.43;;;;;;;-2.15;69.77;95228.44;5092535;28;20047;-74
2024/01/09 11:03:34;;;;;;;11.13;5.65;;;;;;;-2.35;69.34;95239.13;5092688;28;20417;-73
2024/01/09 11:06:00;;;;;;;8.48;5.50;;;;;;;-2.45;69.52;95244.50;5075289;28;20035;-74
2024/01/09 11:08:26;;;;;;;14.43;8.38;;;;;;;-2.69;69.71;95236.63;5075590;28;20027;-74
2024/01/09 11:10:51;;;;;;;14.32;9.35;;;;;;;-2.71;69.43;95246.81;5075314;28;20411;-75
2024/01/09 11:13:17;;;;;;;11.02;7.18;;;;;;;-2.72;69.62;95241.78;5092273;28;20103;-73
2024/01/09 11:15:46;;;;;;;13.30;7.63;;;;;;;-2.90;69.91;95271.00;5092188;28;20127;-74
2024/01/09 11:18:16;;;;;;;13.55;8.15;;;;;;;-3.12;70.79;95257.13;5092156;28;20099;-73
2024/01/09 11:20:42;;;;;;;13.02;8.20;;;;;;;-2.97;70.92;95275.41;5091933;28;20192;-74